createdAt,value
2019-05-25T00:01:58.167Z,0.70
2019-05-25T00:04:26.287Z,0.95
2019-05-25T00:06:54.335Z,0.60
2019-05-25T00:09:22.761Z,0.90
2019-05-25T00:11:50.785Z,0.65
2019-05-25T00:14:18.903Z,0.80
2019-05-25T00:16:47.379Z,0.90
2019-05-25T00:19:15.416Z,0.70
2019-05-25T00:21:43.452Z,0.80
2019-05-25T00:24:12.772Z,0.65
2019-05-25T00:26:41.170Z,0.98
2019-05-25T00:29:09.300Z,0.75
2019-05-25T00:31:37.450Z,0.80
2019-05-25T00:34:05.759Z,0.98
2019-05-25T00:36:34.001Z,0.75
2019-05-25T00:39:02.277Z,0.85
2019-05-25T00:41:31.689Z,0.75
2019-05-25T00:44:00.291Z,0.80
2019-05-25T00:46:28.343Z,0.78
2019-05-25T00:48:56.581Z,0.90
2019-05-25T00:51:24.604Z,0.80
2019-05-25T00:53:52.657Z,0.75
2019-05-25T00:56:20.958Z,0.80
2019-05-25T00:58:49.035Z,0.80
2019-05-25T01:01:17.084Z,1.02
2019-05-25T01:03:45.134Z,0.80
2019-05-25T01:06:13.187Z,0.65
2019-05-25T01:08:41.249Z,0.70
2019-05-25T01:11:09.260Z,0.75
2019-05-25T01:13:37.289Z,0.50
2019-05-25T01:16:05.331Z,0.90
2019-05-25T01:18:33.369Z,0.55
2019-05-25T01:21:05.648Z,0.57
2019-05-25T01:26:01.921Z,0.70
2019-05-25T01:28:30.040Z,0.68
2019-05-25T01:30:58.087Z,0.70
2019-05-25T01:33:26.112Z,0.82
2019-05-25T01:35:54.158Z,0.68
2019-05-25T01:38:22.204Z,0.57
2019-05-25T01:40:50.248Z,0.68
2019-05-25T01:43:19.421Z,0.85
2019-05-25T01:45:47.450Z,0.78
2019-05-25T01:48:15.535Z,0.55
2019-05-25T01:50:43.560Z,0.60
2019-05-25T01:53:11.796Z,0.60
2019-05-25T01:55:40.910Z,0.65
2019-05-25T01:58:08.975Z,0.72
2019-05-25T02:00:36.971Z,0.50
2019-05-25T02:03:04.986Z,0.50
2019-05-25T02:05:33.389Z,0.50
2019-05-25T02:08:01.428Z,0.50
2019-05-25T02:10:29.552Z,0.55
2019-05-25T02:12:57.597Z,0.30
2019-05-25T02:15:25.602Z,0.40
2019-05-25T02:17:53.650Z,0.60
2019-05-25T02:20:21.731Z,0.50
2019-05-25T02:22:49.756Z,0.40
2019-05-25T02:25:18.975Z,0.50
2019-05-25T02:27:47.249Z,0.50
2019-05-25T02:30:16.503Z,0.30
2019-05-25T02:32:44.545Z,0.47
2019-05-25T02:35:24.080Z,0.35
2019-05-25T02:37:52.110Z,0.37
2019-05-25T02:40:20.816Z,0.20
2019-05-25T02:42:48.985Z,0.57
2019-05-25T02:45:17.404Z,0.42
2019-05-25T02:47:46.526Z,0.30
2019-05-25T02:50:14.563Z,0.40
2019-05-25T02:52:43.225Z,0.30
2019-05-25T02:55:12.140Z,0.40
2019-05-25T02:57:40.196Z,0.37
2019-05-25T03:00:09.572Z,0.40
2019-05-25T03:02:37.666Z,0.50
2019-05-25T03:05:06.796Z,0.57
2019-05-25T03:07:36.029Z,0.60
2019-05-25T03:10:05.018Z,0.28
2019-05-25T03:12:33.348Z,0.42
2019-05-25T03:15:01.488Z,0.50
2019-05-25T03:17:29.600Z,0.53
2019-05-25T03:19:57.621Z,0.30
2019-05-25T03:22:25.704Z,0.30
2019-05-25T03:24:53.740Z,0.40
2019-05-25T03:27:21.782Z,0.40
2019-05-25T03:29:49.763Z,0.70
2019-05-25T03:32:18.270Z,0.60
2019-05-25T03:34:46.370Z,0.40
2019-05-25T03:37:18.864Z,0.40
2019-05-25T03:42:14.663Z,0.40
2019-05-25T03:44:42.669Z,0.30
2019-05-25T03:47:11.047Z,0.40
2019-05-25T03:49:39.286Z,0.35
2019-05-25T03:52:07.284Z,0.20
2019-05-25T03:54:35.301Z,0.23
2019-05-25T03:57:03.344Z,0.30
2019-05-25T03:59:31.715Z,0.30
2019-05-25T04:01:59.725Z,0.30
2019-05-25T04:04:27.743Z,0.40
2019-05-25T04:06:55.861Z,0.30
2019-05-25T04:09:24.008Z,0.37
2019-05-25T04:11:52.510Z,0.53
2019-05-25T04:14:20.517Z,0.42
2019-05-25T04:16:48.510Z,0.40
2019-05-25T04:19:16.552Z,0.53
2019-05-25T04:21:44.569Z,0.50
2019-05-25T04:24:16.918Z,0.50
2019-05-25T04:29:12.881Z,0.30
2019-05-25T04:31:41.061Z,0.40
2019-05-25T04:34:09.084Z,0.70
2019-05-25T04:36:37.102Z,0.30
2019-05-25T04:39:06.935Z,0.30
2019-05-25T04:41:34.933Z,0.40
2019-05-25T04:44:03.265Z,0.30
2019-05-25T04:46:31.368Z,0.20
2019-05-25T04:48:59.380Z,0.30
2019-05-25T04:51:27.508Z,0.20
2019-05-25T04:53:55.835Z,0.33
2019-05-25T04:56:38.186Z,0.30
2019-05-25T04:58:54.054Z,0.50
2019-05-25T05:01:22.760Z,0.20
2019-05-25T05:03:50.807Z,0.30
2019-05-25T05:06:18.851Z,0.40
2019-05-25T05:08:47.014Z,0.30
2019-05-25T05:11:15.059Z,0.23
2019-05-25T05:13:43.076Z,0.10
2019-05-25T05:16:11.144Z,0.20
2019-05-25T05:18:39.140Z,0.20
2019-05-25T05:21:07.145Z,0.30
2019-05-25T05:23:35.203Z,0.20
2019-05-25T05:26:03.589Z,0.20
2019-05-25T05:28:31.609Z,0.25
2019-05-25T05:30:59.664Z,0.10
2019-05-25T05:33:27.761Z,0.20
2019-05-25T05:35:58.247Z,0.20
2019-05-25T05:38:27.197Z,0.13
2019-05-25T05:40:56.004Z,0.30
2019-05-25T05:43:28.195Z,0.10
2019-05-25T05:45:58.532Z,0.20
2019-05-25T05:48:27.532Z,0.25
2019-05-25T05:50:59.747Z,0.10
2019-05-25T05:53:27.759Z,0.10
2019-05-25T05:55:55.822Z,0.20
2019-05-25T05:58:23.855Z,0.10
2019-05-25T06:00:51.861Z,0.10
2019-05-25T06:03:23.409Z,0.30
2019-05-25T06:05:51.430Z,0.30
2019-05-25T06:08:19.602Z,0.20
2019-05-25T06:10:47.632Z,0.20
2019-05-25T06:13:15.670Z,0.30
2019-05-25T06:15:43.708Z,0.10
2019-05-25T06:18:11.763Z,0.20
2019-05-25T06:20:39.801Z,0.33
2019-05-25T06:23:12.142Z,0.17
2019-05-25T06:25:38.845Z,0.20
2019-05-25T06:28:06.883Z,0.10
2019-05-25T06:30:34.906Z,0.10
2019-05-25T06:33:03.412Z,0.20
2019-05-25T06:35:31.423Z,0.10
2019-05-25T06:37:59.455Z,0.17
2019-05-25T06:40:27.478Z,0.13
2019-05-25T06:42:55.565Z,0.10
2019-05-25T06:45:23.571Z,0.25
2019-05-25T06:47:51.910Z,0.20
2019-05-25T06:50:20.008Z,0.10
2019-05-25T06:52:48.066Z,0.10
2019-05-25T06:55:16.204Z,0.10
2019-05-25T06:57:44.385Z,0.10
2019-05-25T07:00:13.593Z,0.20
2019-05-25T07:02:41.593Z,0.17
2019-05-25T07:05:09.947Z,0.25
2019-05-25T07:07:37.973Z,0.33
2019-05-25T07:10:06.988Z,0.17
2019-05-25T07:12:35.051Z,0.13
2019-05-25T07:15:04.160Z,0.20
2019-05-25T07:17:32.282Z,0.20
2019-05-25T07:20:00.447Z,0.20
2019-05-25T07:22:28.481Z,0.20
2019-05-25T07:24:57.800Z,0.10
2019-05-25T07:27:26.392Z,0.20
2019-05-25T07:29:55.679Z,0.20
2019-05-25T07:32:23.971Z,0.13
2019-05-25T07:34:52.491Z,0.20
2019-05-25T07:37:20.900Z,0.40
2019-05-25T07:39:49.029Z,0.23
2019-05-25T07:42:19.978Z,1.10
2019-05-25T07:44:47.116Z,1.37
2019-05-25T07:47:17.966Z,2.10
2019-05-25T07:49:46.843Z,1.65
2019-05-25T07:52:14.865Z,1.42
2019-05-25T07:54:42.981Z,2.12
2019-05-25T07:57:11.342Z,1.90
2019-05-25T07:59:39.616Z,2.35
2019-05-25T08:02:08.072Z,2.45
2019-05-25T08:04:36.247Z,3.00
2019-05-25T08:07:04.398Z,2.70
2019-05-25T08:09:32.419Z,2.10
2019-05-25T08:12:00.757Z,2.40
2019-05-25T08:14:28.899Z,3.50
2019-05-25T08:16:57.110Z,4.30
2019-05-25T08:19:25.637Z,4.75
2019-05-25T08:21:53.806Z,4.42
2019-05-25T08:24:21.915Z,4.35
2019-05-25T08:26:49.985Z,4.10
2019-05-25T08:29:18.032Z,3.83
2019-05-25T08:31:46.398Z,3.33
2019-05-25T08:34:14.896Z,3.08
2019-05-25T08:36:45.229Z,2.65
2019-05-25T08:39:13.316Z,2.55
2019-05-25T08:41:45.303Z,2.45
2019-05-25T08:44:11.861Z,1.80
2019-05-25T08:46:39.972Z,2.00
2019-05-25T08:49:08.101Z,1.62
2019-05-25T08:51:36.295Z,1.40
2019-05-25T08:54:04.499Z,1.60
2019-05-25T08:56:32.793Z,1.52
2019-05-25T08:59:01.297Z,1.05
2019-05-25T09:01:29.384Z,1.20
2019-05-25T09:03:57.738Z,1.10
2019-05-25T09:06:26.083Z,1.30
2019-05-25T09:08:54.240Z,0.95
2019-05-25T09:11:22.319Z,1.07
2019-05-25T09:13:50.798Z,1.12
2019-05-25T09:16:18.944Z,1.30
2019-05-25T09:18:47.364Z,0.60
2019-05-25T09:21:34.059Z,0.72
2019-05-25T09:24:02.542Z,0.93
2019-05-25T09:26:30.607Z,0.55
2019-05-25T09:29:04.557Z,1.05
2019-05-25T09:31:29.221Z,0.70
2019-05-25T09:33:57.254Z,0.60
2019-05-25T09:36:25.448Z,0.62
2019-05-25T09:38:53.453Z,0.57
2019-05-25T09:41:21.971Z,0.72
2019-05-25T09:43:50.413Z,0.50
2019-05-25T09:46:18.515Z,0.57
2019-05-25T09:48:46.813Z,0.70
2019-05-25T09:51:15.950Z,0.50
2019-05-25T09:53:44.187Z,0.60
2019-05-25T09:56:12.363Z,0.65
2019-05-25T09:58:40.540Z,0.60
2019-05-25T10:01:08.708Z,0.50
2019-05-25T10:03:37.393Z,0.60
2019-05-25T10:06:11.868Z,0.57
2019-05-25T10:08:36.192Z,0.47
2019-05-25T10:11:04.197Z,0.60
2019-05-25T10:13:32.333Z,0.42
2019-05-25T10:16:00.340Z,0.40
2019-05-25T10:18:28.369Z,0.47
2019-05-25T10:20:56.591Z,0.47
2019-05-25T10:23:24.908Z,0.60
2019-05-25T10:25:52.940Z,0.50
2019-05-25T10:28:21.070Z,0.40
2019-05-25T10:30:49.085Z,0.50
2019-05-25T10:33:17.089Z,0.40
2019-05-25T10:35:45.131Z,0.40
2019-05-25T10:38:13.121Z,0.40
2019-05-25T10:40:41.239Z,0.40
2019-05-25T10:43:09.299Z,0.50
2019-05-25T10:45:37.359Z,0.33
2019-05-25T10:48:05.507Z,0.40
2019-05-25T10:50:33.860Z,0.30
2019-05-25T10:53:02.752Z,0.50
2019-05-25T10:55:30.966Z,0.30
2019-05-25T10:57:59.469Z,0.50
2019-05-25T11:00:28.292Z,0.30
2019-05-25T11:02:56.848Z,0.30
2019-05-25T11:05:25.316Z,0.33
2019-05-25T11:07:53.368Z,0.40
2019-05-25T11:10:22.474Z,0.40
2019-05-25T11:12:50.623Z,0.40
2019-05-25T11:15:18.856Z,0.30
2019-05-25T11:17:47.561Z,0.30
2019-05-25T11:20:17.141Z,0.40
2019-05-25T11:22:45.304Z,0.40
2019-05-25T11:25:13.663Z,0.30
2019-05-25T11:27:41.866Z,0.25
2019-05-25T11:30:12.168Z,0.30
2019-05-25T11:32:40.441Z,0.30
2019-05-25T11:35:09.178Z,0.30
2019-05-25T11:37:37.647Z,0.30
2019-05-25T11:40:06.278Z,0.30
2019-05-25T11:42:34.512Z,0.33
2019-05-25T11:45:03.425Z,0.20
2019-05-25T11:47:31.601Z,0.20
2019-05-25T11:49:59.662Z,0.30
2019-05-25T11:52:27.752Z,0.30
2019-05-25T11:54:55.865Z,0.20
2019-05-25T11:57:24.071Z,0.30
2019-05-25T11:59:52.448Z,0.30
2019-05-25T12:02:20.526Z,0.20
2019-05-25T12:04:48.647Z,0.40
2019-05-25T12:07:16.684Z,0.23
2019-05-25T12:09:44.783Z,0.20
2019-05-25T12:12:13.093Z,0.20
2019-05-25T12:14:41.131Z,0.20
2019-05-25T12:17:09.615Z,0.30
2019-05-25T12:19:38.089Z,0.30
2019-05-25T12:22:06.361Z,0.30
2019-05-25T12:24:34.431Z,0.30
2019-05-25T12:27:02.648Z,0.17
2019-05-25T12:29:30.990Z,0.20
2019-05-25T12:32:04.056Z,0.20
2019-05-25T12:34:29.520Z,0.20
2019-05-25T12:36:57.538Z,0.30
2019-05-25T12:39:26.692Z,0.20
2019-05-25T12:41:55.384Z,0.40
2019-05-25T12:44:23.407Z,0.30
2019-05-25T12:46:51.474Z,0.20
2019-05-25T12:49:19.523Z,0.30
2019-05-25T12:51:47.602Z,0.42
2019-05-25T12:54:15.806Z,0.20
2019-05-25T12:56:43.931Z,0.40
2019-05-25T12:59:12.005Z,0.30
2019-05-25T13:01:40.127Z,0.35
2019-05-25T13:04:08.850Z,0.28
2019-05-25T13:06:37.433Z,0.20
2019-05-25T13:09:07.317Z,0.30
2019-05-25T13:11:35.367Z,0.20
2019-05-25T13:14:14.143Z,0.20
2019-05-25T13:16:33.895Z,0.40
2019-05-25T13:19:01.910Z,0.10
2019-05-25T13:21:30.223Z,0.20
2019-05-25T13:23:58.266Z,0.30
2019-05-25T13:26:26.304Z,0.30
2019-05-25T13:28:54.354Z,0.37
2019-05-25T13:31:23.098Z,0.30
2019-05-25T13:33:51.141Z,0.37
2019-05-25T13:36:19.137Z,0.35
2019-05-25T13:38:47.244Z,0.40
2019-05-25T13:41:15.278Z,0.30
2019-05-25T13:43:43.605Z,0.30
2019-05-25T13:46:11.604Z,0.30
2019-05-25T13:48:39.663Z,0.30
2019-05-25T13:51:07.624Z,0.50
2019-05-25T13:53:35.640Z,0.20
2019-05-25T13:56:03.782Z,0.17
2019-05-25T13:58:32.190Z,0.40
2019-05-25T14:01:00.304Z,0.40
2019-05-25T14:03:28.431Z,0.20
2019-05-25T14:05:56.438Z,0.53
2019-05-25T14:08:24.412Z,0.28
2019-05-25T14:10:52.432Z,0.40
2019-05-25T14:13:20.429Z,0.60
2019-05-25T14:15:48.482Z,0.30
2019-05-25T14:18:16.862Z,0.40
2019-05-25T14:20:44.936Z,0.20
2019-05-25T14:23:13.132Z,0.37
2019-05-25T14:25:41.194Z,0.30
2019-05-25T14:28:09.228Z,0.40
2019-05-25T14:30:37.315Z,0.20
2019-05-25T14:33:05.928Z,0.30
2019-05-25T14:35:34.104Z,0.30
2019-05-25T14:38:02.519Z,0.20
2019-05-25T14:40:30.549Z,0.30
2019-05-25T14:42:59.536Z,0.28
2019-05-25T14:45:27.571Z,0.60
2019-05-25T14:47:58.280Z,0.37
2019-05-25T14:50:26.402Z,0.53
2019-05-25T14:52:54.641Z,0.40
2019-05-25T14:55:22.739Z,0.50
2019-05-25T14:57:50.746Z,0.20
2019-05-25T15:00:20.656Z,0.40
2019-05-25T15:02:48.783Z,0.30
2019-05-25T15:05:17.113Z,0.35
2019-05-25T15:07:45.524Z,0.40
2019-05-25T15:10:14.248Z,0.40
2019-05-25T15:12:42.265Z,0.42
2019-05-25T15:15:11.142Z,0.20
2019-05-25T15:17:42.218Z,0.50
2019-05-25T15:20:09.942Z,0.40
2019-05-25T15:22:38.018Z,0.50
2019-05-25T15:25:06.415Z,0.42
2019-05-25T15:27:34.590Z,0.47
2019-05-25T15:30:03.109Z,0.60
2019-05-25T15:32:31.281Z,0.60
2019-05-25T15:34:59.621Z,0.40
2019-05-25T15:37:27.718Z,0.62
2019-05-25T15:39:55.801Z,0.50
2019-05-25T15:42:24.250Z,0.60
2019-05-25T15:44:52.280Z,0.60
2019-05-25T15:47:20.291Z,0.50
2019-05-25T15:49:48.668Z,0.50
2019-05-25T15:52:16.764Z,0.65
2019-05-25T15:54:45.222Z,0.60
2019-05-25T15:57:13.296Z,0.50
2019-05-25T15:59:41.697Z,0.90
2019-05-25T16:02:09.993Z,0.80
2019-05-25T16:04:38.029Z,1.32
2019-05-25T16:07:06.234Z,2.20
2019-05-25T16:09:34.663Z,2.70
2019-05-25T16:12:02.765Z,2.65
2019-05-25T16:14:31.189Z,2.87
2019-05-25T16:16:59.280Z,3.05
2019-05-25T16:19:27.339Z,3.83
2019-05-25T16:21:55.403Z,3.80
2019-05-25T16:24:23.505Z,4.15
2019-05-25T16:26:51.719Z,4.80
2019-05-25T16:29:19.979Z,6.65
2019-05-25T16:31:48.153Z,5.97
2019-05-25T16:34:17.495Z,7.40
2019-05-25T16:36:45.633Z,7.83
2019-05-25T16:39:14.862Z,8.93
2019-05-25T16:41:43.044Z,9.40
2019-05-25T16:44:11.446Z,9.03
2019-05-25T16:46:39.554Z,7.75
2019-05-25T16:49:07.654Z,8.78
2019-05-25T16:51:35.790Z,7.87
2019-05-25T16:54:03.901Z,7.65
2019-05-25T16:56:32.269Z,7.03
2019-05-25T16:59:00.409Z,7.15
2019-05-25T17:01:46.481Z,7.67
2019-05-25T17:03:59.087Z,6.47
2019-05-25T17:06:27.283Z,6.05
2019-05-25T17:08:56.572Z,6.95
2019-05-25T17:11:25.250Z,7.55
2019-05-25T17:13:53.492Z,10.03
2019-05-25T17:16:21.568Z,8.38
2019-05-25T17:18:50.763Z,8.60
2019-05-25T17:21:18.927Z,8.63
2019-05-25T17:23:47.184Z,8.03
2019-05-25T17:26:15.320Z,7.65
2019-05-25T17:28:43.487Z,7.60
2019-05-25T17:31:11.666Z,7.37
2019-05-25T17:33:45.783Z,7.33
2019-05-25T17:36:12.916Z,8.68
2019-05-25T17:38:39.798Z,11.22
2019-05-25T17:41:07.976Z,13.10
2019-05-25T17:43:36.064Z,15.40
2019-05-25T17:46:04.510Z,17.52
2019-05-25T17:48:32.648Z,16.65
2019-05-25T17:51:00.880Z,16.67
2019-05-25T17:53:29.280Z,17.32
2019-05-25T17:55:57.348Z,16.48
2019-05-25T17:58:25.508Z,16.20
2019-05-25T18:00:54.346Z,14.65
2019-05-25T18:03:22.472Z,13.90
2019-05-25T18:05:50.614Z,12.70
2019-05-25T18:08:18.836Z,13.10
2019-05-25T18:10:53.475Z,12.40
2019-05-25T18:13:17.557Z,11.85
2019-05-25T18:15:45.755Z,13.25
2019-05-25T18:18:13.849Z,10.38
2019-05-25T18:20:42.577Z,10.30
2019-05-25T18:23:10.981Z,8.75
2019-05-25T18:25:39.161Z,9.43
2019-05-25T18:28:07.369Z,8.08
2019-05-25T18:30:36.330Z,7.50
2019-05-25T18:33:05.054Z,7.58
2019-05-25T18:35:33.643Z,7.30
2019-05-25T18:38:02.306Z,7.05
2019-05-25T18:40:30.563Z,7.25
2019-05-25T18:42:58.861Z,6.92
2019-05-25T18:45:27.077Z,6.85
2019-05-25T18:47:55.679Z,6.08
2019-05-25T18:50:23.732Z,6.80
2019-05-25T18:52:51.831Z,6.35
2019-05-25T18:55:20.552Z,6.53
2019-05-25T18:57:48.566Z,6.12
2019-05-25T19:00:17.187Z,5.50
2019-05-25T19:02:45.488Z,5.67
2019-05-25T19:05:15.891Z,5.50
2019-05-25T19:07:44.503Z,5.55
2019-05-25T19:10:13.121Z,5.28
2019-05-25T19:12:41.196Z,5.00
2019-05-25T19:15:10.647Z,4.60
2019-05-25T19:17:39.240Z,4.08
2019-05-25T19:20:09.303Z,4.45
2019-05-25T19:22:37.447Z,4.17
2019-05-25T19:25:06.992Z,3.98
2019-05-25T19:27:35.202Z,3.35
2019-05-25T19:30:04.559Z,3.62
2019-05-25T19:32:32.757Z,3.10
2019-05-25T19:35:00.846Z,3.02
2019-05-25T19:37:28.978Z,3.10
2019-05-25T19:39:57.254Z,2.47
2019-05-25T19:42:25.411Z,2.65
2019-05-25T19:44:53.779Z,2.27
2019-05-25T19:47:21.848Z,2.60
2019-05-25T19:49:49.951Z,2.37
2019-05-25T19:52:18.028Z,2.30
2019-05-25T19:54:46.074Z,2.30
2019-05-25T19:57:14.493Z,2.52
2019-05-25T19:59:43.061Z,2.17
2019-05-25T20:02:11.304Z,1.87
2019-05-25T20:04:39.487Z,1.75
2019-05-25T20:07:07.607Z,1.62
2019-05-25T20:09:35.668Z,1.82
2019-05-25T20:12:04.909Z,2.08
2019-05-25T20:14:33.026Z,2.15
2019-05-25T20:17:01.251Z,1.80
2019-05-25T20:19:29.387Z,1.65
2019-05-25T20:21:57.600Z,1.80
2019-05-25T20:24:25.661Z,1.70
2019-05-25T20:26:54.090Z,1.92
2019-05-25T20:29:22.224Z,1.85
2019-05-25T20:31:50.291Z,2.17
2019-05-25T20:34:18.400Z,1.80
2019-05-25T20:36:46.598Z,1.50
2019-05-25T20:39:14.669Z,1.72
2019-05-25T20:41:43.360Z,1.70
2019-05-25T20:44:11.439Z,1.80
2019-05-25T20:46:39.506Z,1.65
2019-05-25T20:49:07.896Z,1.42
2019-05-25T20:51:36.089Z,1.50
2019-05-25T20:54:04.716Z,1.45
2019-05-25T20:56:33.223Z,1.42
2019-05-25T20:59:01.805Z,1.20
2019-05-25T21:01:29.981Z,1.00
2019-05-25T21:03:58.161Z,1.40
2019-05-25T21:06:26.261Z,1.22
2019-05-25T21:08:54.911Z,1.65
2019-05-25T21:11:23.073Z,1.30
2019-05-25T21:13:52.325Z,1.20
2019-05-25T21:16:20.473Z,1.15
2019-05-25T21:18:48.682Z,1.22
2019-05-25T21:21:16.868Z,0.90
2019-05-25T21:23:45.092Z,1.22
2019-05-25T21:26:13.235Z,1.30
2019-05-25T21:28:41.482Z,1.15
2019-05-25T21:31:09.615Z,1.22
2019-05-25T21:33:38.309Z,1.30
2019-05-25T21:36:09.212Z,1.20
2019-05-25T21:38:37.215Z,1.10
2019-05-25T21:41:05.494Z,1.02
2019-05-25T21:43:35.177Z,0.80
2019-05-25T21:46:03.288Z,1.20
2019-05-25T21:48:31.517Z,1.00
2019-05-25T21:51:19.015Z,1.10
2019-05-25T21:53:47.177Z,1.30
2019-05-25T21:56:16.315Z,1.22
2019-05-25T21:58:44.523Z,1.20
2019-05-25T22:01:12.957Z,0.90
2019-05-25T22:03:41.096Z,1.20
2019-05-25T22:06:23.224Z,0.95
2019-05-25T22:08:39.801Z,1.20
2019-05-25T22:11:07.879Z,0.90
2019-05-25T22:13:36.058Z,1.25
2019-05-25T22:16:04.363Z,0.88
2019-05-25T22:18:32.366Z,0.95
2019-05-25T22:21:00.876Z,1.07
2019-05-25T22:23:29.028Z,1.10
2019-05-25T22:25:57.443Z,0.80
2019-05-25T22:28:25.591Z,0.90
2019-05-25T22:30:53.657Z,0.80
2019-05-25T22:33:21.707Z,0.70
2019-05-25T22:35:49.781Z,0.90
2019-05-25T22:38:17.823Z,0.70
2019-05-25T22:40:45.939Z,0.82
2019-05-25T22:43:14.038Z,0.80
2019-05-25T22:45:43.313Z,0.70
2019-05-25T22:48:11.321Z,0.80
2019-05-25T22:50:39.394Z,0.60
2019-05-25T22:53:07.552Z,0.85
2019-05-25T22:55:36.420Z,0.70
2019-05-25T22:58:04.629Z,0.82
2019-05-25T23:00:32.778Z,0.50
2019-05-25T23:03:00.943Z,0.65
2019-05-25T23:05:28.990Z,0.62
2019-05-25T23:07:57.023Z,0.60
2019-05-25T23:10:25.073Z,0.80
2019-05-25T23:12:53.608Z,0.85
2019-05-25T23:15:21.642Z,0.90
2019-05-25T23:17:51.005Z,0.70
2019-05-25T23:20:19.508Z,0.85
2019-05-25T23:22:47.566Z,0.57
2019-05-25T23:25:15.708Z,0.57
2019-05-25T23:27:44.311Z,0.70
2019-05-25T23:30:12.947Z,0.50
2019-05-25T23:32:40.968Z,0.60
2019-05-25T23:35:09.318Z,0.90
2019-05-25T23:37:37.943Z,0.60
2019-05-25T23:40:07.190Z,0.50
2019-05-25T23:42:35.358Z,0.42
2019-05-25T23:45:04.965Z,0.53
2019-05-25T23:47:33.461Z,0.57
2019-05-25T23:50:01.650Z,0.57
2019-05-25T23:52:29.983Z,0.80
2019-05-25T23:54:57.988Z,0.65
2019-05-25T23:57:26.025Z,0.50
2019-05-25T23:59:54.056Z,0.53
